Airfield :
LOGIN :

Register | Disclaimer

   EN    FR    IT 

 










Legend :    VFR   Marginal VFR   IFR   Intensive IFR   Very Intensive IFR
Visi :
Ceiling :
>= 8 km
>= 3000ft
5 to 8 km
1000 to 3000 ft
1500m to 5 km
500 to 1000 ft
800 to 1500m
200 to 500 ft
< 800m
< 200 ft
Symbols :   Thunderstorms  Fog  Heavy snow  Heavy precipitations  Wind > 20 kt
SIGMETs :     Misc.  Thunderstorms  Icing  Turbulence  Mountain Waves  Volcanic Ashes






- Airport Elevation : 0 ft


ETEB - Ansbach Army Heliport

CURRENT METAR :
  • 042356Z AUTO 18006KT 9999 BKN070 14/13 A2990 RMK AO2 SLP130 T01430127 10172 20143 58003 $

EXPIRED METARs :
  • 042256Z AUTO 19005KT 9999 OVC070 15/13 A2991 RMK AO2 SLP131 T01450127 401910130 $
  • 042156Z AUTO 18004KT 9999 FEW075 15/13 A2991 RMK AO2 SLP133 T01460125 $

TAF TAF ETEB
Valid from the 04 at 17:00 until the 05 at 23:00 UTC


041700Z 0417/0523 23010KT 9999 FEW030 BKN060 QNH2991INS
BECMG 0420/0421 21006KT 9999 VCSH BKN020 OVC050 QNH2989INS
BECMG 0501/0503 24006KT 8000 -DZ SCT010 BKN015 OVC035 QNH2986INS
BECMG 0506/0507 25006KT 9999 NSW SCT020 BKN040 QNH2983INS
BECMG 0509/0510 27012KT 8000 -SHRA BKN020 OVC040 QNH2981INS
BECMG 0522/0523 27009KT 9999 NSW SCT020 BKN040 QNH2980INS TX19/0515Z TN12/0502Z LAST NO AMDS AFT 0422 NEXT 0509



MET'MAP, your aeronautical weather chart ! - Copyright ORBIFLY December 2007 - Disclaimer

ORBIFLY MET'MAP TEAM :

Programming & Development : Alexandra Zaïnal
Concept & original design : Baudouin d'Aumeries
Assistance for programming : Marc-Olivier Méhu
Technical & hardware support : Manuel Goepfert

Contact : metmap@orbifly.com




SOURCES & CREDITS :

   NOAA